createdAt,value
2019-03-30T00:00:05.517Z,4.75
2019-03-30T00:01:05.926Z,4.75
2019-03-30T00:02:05.053Z,4.69
2019-03-30T00:03:05.465Z,4.69
2019-03-30T00:04:05.854Z,4.69
2019-03-30T00:05:05.150Z,4.69
2019-03-30T00:06:05.214Z,4.62
2019-03-30T00:07:05.210Z,4.62
2019-03-30T00:08:05.679Z,4.62
2019-03-30T00:09:05.770Z,4.62
2019-03-30T00:10:05.932Z,4.62
2019-03-30T00:11:05.960Z,4.56
2019-03-30T00:12:05.916Z,4.56
2019-03-30T00:13:05.927Z,4.56
2019-03-30T00:14:05.212Z,4.56
2019-03-30T00:15:05.619Z,4.56
2019-03-30T00:16:05.784Z,4.50
2019-03-30T00:17:05.781Z,4.50
2019-03-30T00:18:05.766Z,4.50
2019-03-30T00:19:05.130Z,4.50
2019-03-30T00:20:05.191Z,4.50
2019-03-30T00:21:05.287Z,4.50
2019-03-30T00:22:05.692Z,4.50
2019-03-30T00:23:05.967Z,4.50
2019-03-30T00:24:05.917Z,4.44
2019-03-30T00:25:06.098Z,4.44
2019-03-30T00:26:05.516Z,4.44
2019-03-30T00:27:05.622Z,4.38
2019-03-30T00:28:05.684Z,4.38
2019-03-30T00:29:05.766Z,4.38
2019-03-30T00:30:05.213Z,4.31
2019-03-30T00:31:05.291Z,4.31
2019-03-30T00:32:05.442Z,4.31
2019-03-30T00:33:05.862Z,4.31
2019-03-30T00:34:05.434Z,4.31
2019-03-30T00:35:05.138Z,4.31
2019-03-30T00:36:05.204Z,4.31
2019-03-30T00:37:05.812Z,4.31
2019-03-30T00:38:05.125Z,4.31
2019-03-30T00:39:05.615Z,4.31
2019-03-30T00:40:05.927Z,4.31
2019-03-30T00:41:05.554Z,4.25
2019-03-30T00:42:05.453Z,4.25
2019-03-30T00:43:05.830Z,4.25
2019-03-30T00:44:05.360Z,4.19
2019-03-30T00:45:05.851Z,4.19
2019-03-30T00:46:05.437Z,4.19
2019-03-30T00:47:06.003Z,4.19
2019-03-30T00:48:05.047Z,4.19
2019-03-30T00:49:05.046Z,4.19
2019-03-30T00:50:05.504Z,4.19
2019-03-30T00:51:05.048Z,4.19
2019-03-30T00:52:05.506Z,4.19
2019-03-30T00:53:05.122Z,4.19
2019-03-30T00:54:05.532Z,4.19
2019-03-30T00:55:05.925Z,4.19
2019-03-30T00:56:05.278Z,4.19
2019-03-30T00:57:05.827Z,4.12
2019-03-30T00:58:06.081Z,4.12
2019-03-30T00:59:05.134Z,4.19
2019-03-30T01:00:05.756Z,4.12
2019-03-30T01:01:06.030Z,4.12
2019-03-30T01:02:05.918Z,4.12
2019-03-30T01:03:06.007Z,4.12
2019-03-30T01:04:05.851Z,4.12
2019-03-30T01:05:05.047Z,4.12
2019-03-30T01:06:05.702Z,4.06
2019-03-30T01:07:05.786Z,4.06
2019-03-30T01:08:05.106Z,4.06
2019-03-30T01:09:05.788Z,4.06
2019-03-30T01:10:05.755Z,4.06
2019-03-30T01:11:05.879Z,4.00
2019-03-30T01:12:05.775Z,4.00
2019-03-30T01:13:06.041Z,4.00
2019-03-30T01:14:06.004Z,4.06
2019-03-30T01:15:05.213Z,4.06
2019-03-30T01:16:05.672Z,4.00
2019-03-30T01:17:05.861Z,4.00
2019-03-30T01:18:05.767Z,4.00
2019-03-30T01:19:05.296Z,4.00
2019-03-30T01:20:05.285Z,4.00
2019-03-30T01:21:05.622Z,4.00
2019-03-30T01:22:05.428Z,4.00
2019-03-30T01:23:06.098Z,4.00
2019-03-30T01:24:05.113Z,4.00
2019-03-30T01:25:05.473Z,4.00
2019-03-30T01:26:05.840Z,4.00
2019-03-30T01:27:05.964Z,3.94
2019-03-30T01:28:05.995Z,3.94
2019-03-30T01:29:05.461Z,3.94
2019-03-30T01:30:05.917Z,3.94
2019-03-30T01:31:05.790Z,3.94
2019-03-30T01:32:05.756Z,3.88
2019-03-30T01:33:06.024Z,3.88
2019-03-30T01:34:05.544Z,3.88
2019-03-30T01:35:05.825Z,3.88
2019-03-30T01:36:05.762Z,3.88
2019-03-30T01:37:05.841Z,3.88
2019-03-30T01:38:05.361Z,3.88
2019-03-30T01:39:05.455Z,3.81
2019-03-30T01:40:05.120Z,3.81
2019-03-30T01:41:05.386Z,3.81
2019-03-30T01:42:05.264Z,3.81
2019-03-30T01:43:05.378Z,3.81
2019-03-30T01:44:05.847Z,3.81
2019-03-30T01:45:05.047Z,3.81
2019-03-30T01:46:05.516Z,3.81
2019-03-30T01:47:05.514Z,3.81
2019-03-30T01:48:05.836Z,3.81
2019-03-30T01:49:05.470Z,3.81
2019-03-30T01:50:16.471Z,3.81
2019-03-30T01:51:05.382Z,3.81
2019-03-30T01:52:05.460Z,3.81
2019-03-30T01:53:05.448Z,3.81
2019-03-30T01:54:05.674Z,3.75
2019-03-30T01:55:05.150Z,3.75
2019-03-30T01:56:05.216Z,3.75
2019-03-30T01:57:05.380Z,3.75
2019-03-30T01:58:05.352Z,3.75
2019-03-30T01:59:05.750Z,3.75
2019-03-30T02:00:06.076Z,3.75
2019-03-30T02:01:05.532Z,3.75
2019-03-30T02:02:05.528Z,3.75
2019-03-30T02:03:05.878Z,3.75
2019-03-30T02:04:05.992Z,3.69
2019-03-30T02:05:05.440Z,3.69
2019-03-30T02:06:05.777Z,3.69
2019-03-30T02:07:05.857Z,3.69
2019-03-30T02:08:05.850Z,3.69
2019-03-30T02:09:05.201Z,3.69
2019-03-30T02:10:05.206Z,3.62
2019-03-30T02:11:05.582Z,3.62
2019-03-30T02:12:05.671Z,3.69
2019-03-30T02:13:05.863Z,3.62
2019-03-30T02:14:05.123Z,3.69
2019-03-30T02:15:05.772Z,3.62
2019-03-30T02:16:05.748Z,3.62
2019-03-30T02:17:05.906Z,3.62
2019-03-30T02:18:05.995Z,3.62
2019-03-30T02:19:05.216Z,3.62
2019-03-30T02:20:05.289Z,3.56
2019-03-30T02:21:05.829Z,3.56
2019-03-30T02:22:05.927Z,3.56
2019-03-30T02:23:05.445Z,3.56
2019-03-30T02:24:06.036Z,3.56
2019-03-30T02:25:05.915Z,3.56
2019-03-30T02:26:05.213Z,3.56
2019-03-30T02:27:05.199Z,3.56
2019-03-30T02:28:06.967Z,3.56
2019-03-30T02:29:05.678Z,3.56
2019-03-30T02:30:06.008Z,3.50
2019-03-30T02:31:05.023Z,3.50
2019-03-30T02:32:05.122Z,3.56
2019-03-30T02:33:05.188Z,3.50
2019-03-30T02:34:05.609Z,3.50
2019-03-30T02:35:06.077Z,3.50
2019-03-30T02:36:05.609Z,3.50
2019-03-30T02:37:05.115Z,3.50
2019-03-30T02:38:05.205Z,3.50
2019-03-30T02:39:05.567Z,3.50
2019-03-30T02:40:05.053Z,3.50
2019-03-30T02:41:05.452Z,3.50
2019-03-30T02:42:05.946Z,3.50
2019-03-30T02:43:05.361Z,3.44
2019-03-30T02:44:06.744Z,3.44
2019-03-30T02:45:06.006Z,3.44
2019-03-30T02:46:05.530Z,3.44
2019-03-30T02:47:05.128Z,3.44
2019-03-30T02:48:05.459Z,3.44
2019-03-30T02:49:06.114Z,3.44
2019-03-30T02:50:05.134Z,3.44
2019-03-30T02:51:07.098Z,3.38
2019-03-30T02:52:05.600Z,3.38
2019-03-30T02:53:05.832Z,3.38
2019-03-30T02:54:05.842Z,3.38
2019-03-30T02:55:05.544Z,3.38
2019-03-30T02:56:05.774Z,3.38
2019-03-30T02:57:05.865Z,3.38
2019-03-30T02:58:06.094Z,3.38
2019-03-30T02:59:05.437Z,3.38
2019-03-30T03:00:06.004Z,3.38
2019-03-30T03:01:05.219Z,3.31
2019-03-30T03:02:05.145Z,3.31
2019-03-30T03:03:05.668Z,3.31
2019-03-30T03:04:05.138Z,3.31
2019-03-30T03:05:05.194Z,3.31
2019-03-30T03:06:05.379Z,3.31
2019-03-30T03:07:05.588Z,3.31
2019-03-30T03:08:05.382Z,3.25
2019-03-30T03:09:05.616Z,3.25
2019-03-30T03:10:06.041Z,3.25
2019-03-30T03:11:05.854Z,3.25
2019-03-30T03:12:05.934Z,3.25
2019-03-30T03:13:05.128Z,3.25
2019-03-30T03:14:05.460Z,3.25
2019-03-30T03:15:05.583Z,3.19
2019-03-30T03:16:05.129Z,3.19
2019-03-30T03:17:05.305Z,3.19
2019-03-30T03:18:05.555Z,3.19
2019-03-30T03:19:05.530Z,3.19
2019-03-30T03:20:06.837Z,3.19
2019-03-30T03:21:07.678Z,3.19
2019-03-30T03:22:05.139Z,3.25
2019-03-30T03:23:05.380Z,3.19
2019-03-30T03:24:05.459Z,3.19
2019-03-30T03:25:05.673Z,3.19
2019-03-30T03:26:05.908Z,3.19
2019-03-30T03:27:05.554Z,3.19
2019-03-30T03:28:05.543Z,3.19
2019-03-30T03:29:05.700Z,3.19
2019-03-30T03:30:05.771Z,3.19
2019-03-30T03:31:06.032Z,3.19
2019-03-30T03:32:05.562Z,3.19
2019-03-30T03:33:05.791Z,3.19
2019-03-30T03:34:05.929Z,3.19
2019-03-30T03:35:06.032Z,3.19
2019-03-30T03:36:05.278Z,3.12
2019-03-30T03:37:05.867Z,3.12
2019-03-30T03:38:06.085Z,3.12
2019-03-30T03:39:05.478Z,3.12
2019-03-30T03:40:05.527Z,3.12
2019-03-30T03:41:05.130Z,3.12
2019-03-30T03:42:05.349Z,3.06
2019-03-30T03:43:05.378Z,3.06
2019-03-30T03:44:05.932Z,3.06
2019-03-30T03:45:06.027Z,3.06
2019-03-30T03:46:05.033Z,3.06
2019-03-30T03:47:05.131Z,3.06
2019-03-30T03:48:05.527Z,3.12
2019-03-30T03:49:05.774Z,3.06
2019-03-30T03:50:05.307Z,3.06
2019-03-30T03:51:05.936Z,3.06
2019-03-30T03:52:06.008Z,3.12
2019-03-30T03:53:05.953Z,3.12
2019-03-30T03:54:06.030Z,3.06
2019-03-30T03:55:05.126Z,3.12
2019-03-30T03:56:05.351Z,3.12
2019-03-30T03:57:05.032Z,3.12
2019-03-30T03:58:05.284Z,3.06
2019-03-30T03:59:05.866Z,3.06
2019-03-30T04:00:05.921Z,3.06
2019-03-30T04:01:05.570Z,3.06
2019-03-30T04:02:05.195Z,3.06
2019-03-30T04:03:05.201Z,3.06
2019-03-30T04:04:05.544Z,3.06
2019-03-30T04:05:05.627Z,3.06
2019-03-30T04:06:05.847Z,3.06
2019-03-30T04:07:05.454Z,3.06
2019-03-30T04:08:05.727Z,3.06
2019-03-30T04:09:05.852Z,3.06
2019-03-30T04:10:05.293Z,3.06
2019-03-30T04:11:05.537Z,3.00
2019-03-30T04:12:05.679Z,3.00
2019-03-30T04:13:07.029Z,3.00
2019-03-30T04:14:05.846Z,3.00
2019-03-30T04:15:05.457Z,3.00
2019-03-30T04:16:05.531Z,3.00
2019-03-30T04:17:05.683Z,3.00
2019-03-30T04:18:05.358Z,2.94
2019-03-30T04:19:05.591Z,2.94
2019-03-30T04:20:05.469Z,2.94
2019-03-30T04:21:05.969Z,2.94
2019-03-30T04:22:05.469Z,2.94
2019-03-30T04:23:05.702Z,2.94
2019-03-30T04:24:06.042Z,2.88
2019-03-30T04:25:05.215Z,2.88
2019-03-30T04:26:05.630Z,2.88
2019-03-30T04:27:05.044Z,2.88
2019-03-30T04:28:05.233Z,2.88
2019-03-30T04:29:05.372Z,2.88
2019-03-30T04:30:05.443Z,2.88
2019-03-30T04:31:05.757Z,2.88
2019-03-30T04:32:05.375Z,2.88
2019-03-30T04:33:05.515Z,2.81
2019-03-30T04:34:05.396Z,2.81
2019-03-30T04:35:05.382Z,2.81
2019-03-30T04:36:05.376Z,2.81
2019-03-30T04:37:05.847Z,2.81
2019-03-30T04:38:06.195Z,2.81
2019-03-30T04:39:05.139Z,2.81
2019-03-30T04:40:05.306Z,2.75
2019-03-30T04:41:05.997Z,2.75
2019-03-30T04:42:05.210Z,2.75
2019-03-30T04:43:05.871Z,2.75
2019-03-30T04:44:05.615Z,2.75
2019-03-30T04:45:05.701Z,2.75
2019-03-30T04:46:05.683Z,2.75
2019-03-30T04:47:12.041Z,2.69
2019-03-30T04:48:05.533Z,2.69
2019-03-30T04:49:05.851Z,2.69
2019-03-30T04:50:05.938Z,2.69
2019-03-30T04:51:06.074Z,2.69
2019-03-30T04:52:05.287Z,2.69
2019-03-30T04:53:05.360Z,2.75
2019-03-30T04:54:06.010Z,3.00
2019-03-30T04:55:05.563Z,3.12
2019-03-30T04:56:05.411Z,3.31
2019-03-30T04:57:05.428Z,3.44
2019-03-30T04:58:08.970Z,3.62
2019-03-30T04:59:05.840Z,3.56
2019-03-30T05:00:05.027Z,3.50
2019-03-30T05:01:05.463Z,3.38
2019-03-30T05:02:05.535Z,3.31
2019-03-30T05:03:06.019Z,3.25
2019-03-30T05:04:05.323Z,3.19
2019-03-30T05:05:05.143Z,3.12
2019-03-30T05:06:05.300Z,3.25
2019-03-30T05:07:05.881Z,3.25
2019-03-30T05:08:06.556Z,3.31
2019-03-30T05:09:06.163Z,3.44
2019-03-30T05:10:05.370Z,3.50
2019-03-30T05:11:05.273Z,3.62
2019-03-30T05:12:05.875Z,3.62
2019-03-30T05:13:06.006Z,3.69
2019-03-30T05:14:05.148Z,3.62
2019-03-30T05:15:05.424Z,3.56
2019-03-30T05:16:05.628Z,3.56
2019-03-30T05:17:05.996Z,3.44
2019-03-30T05:18:05.661Z,3.38
2019-03-30T05:19:05.929Z,3.31
2019-03-30T05:20:06.263Z,3.31
2019-03-30T05:21:05.349Z,3.31
2019-03-30T05:22:11.795Z,3.25
2019-03-30T05:23:05.830Z,3.25
2019-03-30T05:24:05.452Z,3.25
2019-03-30T05:25:06.317Z,3.31
2019-03-30T05:26:06.014Z,3.31
2019-03-30T05:27:06.005Z,3.38
2019-03-30T05:28:05.611Z,3.44
2019-03-30T05:29:05.783Z,3.50
2019-03-30T05:30:05.770Z,3.62
2019-03-30T05:31:05.452Z,3.75
2019-03-30T05:32:05.864Z,3.88
2019-03-30T05:33:06.473Z,3.94
2019-03-30T05:34:05.512Z,4.00
2019-03-30T05:35:05.931Z,4.06
2019-03-30T05:36:05.390Z,4.06
2019-03-30T05:37:05.596Z,4.12
2019-03-30T05:38:05.215Z,4.19
2019-03-30T05:39:06.010Z,4.25
2019-03-30T05:40:06.024Z,4.44
2019-03-30T05:41:05.227Z,4.62
2019-03-30T05:42:05.773Z,4.88
2019-03-30T05:43:05.917Z,5.19
2019-03-30T05:44:05.385Z,5.44
2019-03-30T05:45:05.930Z,5.69
2019-03-30T05:46:05.121Z,5.88
2019-03-30T05:47:05.458Z,6.00
2019-03-30T05:48:05.601Z,6.06
2019-03-30T05:49:05.802Z,6.12
2019-03-30T05:50:05.786Z,6.12
2019-03-30T05:51:05.209Z,6.25
2019-03-30T05:52:05.378Z,6.31
2019-03-30T05:53:05.593Z,6.44
2019-03-30T05:54:05.041Z,6.56
2019-03-30T05:55:05.373Z,6.62
2019-03-30T05:56:05.874Z,6.88
2019-03-30T05:57:06.254Z,7.12
2019-03-30T05:58:05.308Z,7.25
2019-03-30T05:59:05.929Z,7.38
2019-03-30T06:00:05.481Z,7.50
2019-03-30T06:01:05.604Z,7.56
2019-03-30T06:02:06.092Z,7.69
2019-03-30T06:03:05.274Z,7.81
2019-03-30T06:04:05.186Z,7.94
2019-03-30T06:05:05.384Z,8.00
2019-03-30T06:06:05.929Z,8.12
2019-03-30T06:07:05.682Z,8.25
2019-03-30T06:08:05.772Z,8.38
2019-03-30T06:09:06.106Z,8.50
2019-03-30T06:10:05.031Z,8.62
2019-03-30T06:11:05.268Z,8.81
2019-03-30T06:12:05.943Z,8.94
2019-03-30T06:13:06.064Z,9.12
2019-03-30T06:14:05.220Z,9.25
2019-03-30T06:15:05.304Z,9.38
2019-03-30T06:16:05.435Z,9.44
2019-03-30T06:17:05.683Z,9.50
2019-03-30T06:18:05.530Z,9.56
2019-03-30T06:19:06.036Z,9.69
2019-03-30T06:20:05.050Z,9.69
2019-03-30T06:21:05.610Z,9.62
2019-03-30T06:22:05.778Z,9.75
2019-03-30T06:23:06.011Z,9.81
2019-03-30T06:24:06.115Z,9.81
2019-03-30T06:25:05.233Z,10.00
2019-03-30T06:26:05.368Z,10.06
2019-03-30T06:27:05.535Z,10.12
2019-03-30T06:28:05.779Z,10.25
2019-03-30T06:29:05.275Z,10.38
2019-03-30T06:30:06.098Z,10.50
2019-03-30T06:31:05.155Z,10.62
2019-03-30T06:32:05.622Z,10.75
2019-03-30T06:33:06.008Z,10.88
2019-03-30T06:34:05.145Z,11.00
2019-03-30T06:35:05.457Z,11.12
2019-03-30T06:36:05.431Z,11.25
2019-03-30T06:37:05.757Z,11.38
2019-03-30T06:38:05.547Z,11.44
2019-03-30T06:39:05.522Z,11.56
2019-03-30T06:40:05.303Z,11.62
2019-03-30T06:41:05.920Z,11.81
2019-03-30T06:42:05.219Z,11.88
2019-03-30T06:43:07.635Z,11.94
2019-03-30T06:44:05.386Z,11.94
2019-03-30T06:45:05.674Z,11.94
2019-03-30T06:46:05.311Z,11.94
2019-03-30T06:47:05.453Z,12.25
2019-03-30T06:48:05.940Z,12.31
2019-03-30T06:49:05.130Z,12.44
2019-03-30T06:50:05.133Z,12.56
2019-03-30T06:51:05.855Z,12.81
2019-03-30T06:52:06.084Z,12.94
2019-03-30T06:53:05.781Z,13.31
2019-03-30T06:54:05.309Z,13.56
2019-03-30T06:55:05.545Z,13.62
2019-03-30T06:56:05.842Z,13.62
2019-03-30T06:57:05.453Z,13.69
2019-03-30T06:58:05.776Z,13.75
2019-03-30T06:59:05.437Z,13.81
2019-03-30T07:00:05.527Z,13.88
2019-03-30T07:01:05.834Z,14.00
2019-03-30T07:02:05.616Z,14.12
2019-03-30T07:03:05.022Z,14.25
2019-03-30T07:04:05.247Z,14.31
2019-03-30T07:05:05.518Z,14.44
2019-03-30T07:06:05.133Z,14.50
2019-03-30T07:07:05.785Z,14.50
2019-03-30T07:08:05.948Z,14.69
2019-03-30T07:09:05.856Z,14.81
2019-03-30T07:10:05.362Z,14.88
2019-03-30T07:11:20.162Z,14.94
2019-03-30T07:12:05.599Z,15.00
2019-03-30T07:13:05.302Z,15.06
2019-03-30T07:14:05.985Z,15.06
2019-03-30T07:15:05.809Z,15.19
2019-03-30T07:16:08.545Z,15.19
2019-03-30T07:17:06.007Z,15.31
2019-03-30T07:18:05.873Z,15.38
2019-03-30T07:19:05.923Z,15.44
2019-03-30T07:20:05.583Z,15.50
2019-03-30T07:21:05.395Z,15.62
2019-03-30T07:22:05.928Z,15.69
2019-03-30T07:23:12.002Z,15.75
2019-03-30T07:24:05.269Z,15.81
2019-03-30T07:25:05.528Z,15.88
2019-03-30T07:26:06.160Z,16.06
2019-03-30T07:27:05.212Z,16.19
2019-03-30T07:28:05.842Z,16.25
2019-03-30T07:29:06.269Z,16.38
2019-03-30T07:30:05.622Z,16.38
2019-03-30T07:31:05.369Z,16.44
2019-03-30T07:32:05.610Z,16.44
2019-03-30T07:33:05.750Z,16.50
2019-03-30T07:34:05.846Z,16.50
2019-03-30T07:35:05.600Z,16.50
2019-03-30T07:36:05.719Z,16.69
2019-03-30T07:37:05.749Z,16.75
2019-03-30T07:38:05.997Z,16.81
2019-03-30T07:39:05.599Z,16.75
2019-03-30T07:40:05.202Z,16.75
2019-03-30T07:41:05.294Z,16.75
2019-03-30T07:42:05.686Z,16.81
2019-03-30T07:43:05.762Z,16.88
2019-03-30T07:44:05.278Z,16.88
2019-03-30T07:45:05.626Z,16.88
2019-03-30T07:46:05.683Z,16.94
2019-03-30T07:47:06.186Z,16.94
2019-03-30T07:48:05.218Z,17.00
2019-03-30T07:49:05.404Z,17.00
2019-03-30T07:50:05.613Z,17.06
2019-03-30T07:51:05.270Z,17.06
2019-03-30T07:52:06.163Z,17.06
2019-03-30T07:53:05.286Z,17.12
2019-03-30T07:54:05.526Z,17.38
2019-03-30T07:55:05.373Z,17.44
2019-03-30T07:56:08.458Z,17.50
2019-03-30T07:57:10.944Z,17.56
2019-03-30T07:58:05.691Z,17.50
2019-03-30T07:59:05.357Z,17.50
2019-03-30T08:00:05.687Z,17.44
2019-03-30T08:01:05.855Z,17.44
2019-03-30T08:02:05.112Z,17.44
2019-03-30T08:03:05.327Z,17.44
2019-03-30T08:04:05.930Z,17.44
2019-03-30T08:05:05.490Z,17.44
2019-03-30T08:06:05.131Z,17.44
2019-03-30T08:07:05.213Z,17.44
2019-03-30T08:08:05.843Z,17.44
2019-03-30T08:09:05.204Z,17.44
2019-03-30T08:10:05.589Z,17.44
2019-03-30T08:11:05.932Z,17.50
2019-03-30T08:12:05.523Z,17.50
2019-03-30T08:13:05.609Z,17.50
2019-03-30T08:14:05.290Z,17.56
2019-03-30T08:15:05.616Z,17.50
2019-03-30T08:16:05.479Z,17.50
2019-03-30T08:17:05.285Z,17.56
2019-03-30T08:18:05.530Z,17.56
2019-03-30T08:19:06.004Z,17.56
2019-03-30T08:20:05.213Z,17.56
2019-03-30T08:21:05.371Z,17.56
2019-03-30T08:22:06.090Z,17.62
2019-03-30T08:23:05.040Z,17.62
2019-03-30T08:24:05.364Z,17.62
2019-03-30T08:25:05.940Z,17.62
2019-03-30T08:26:05.932Z,17.56
2019-03-30T08:27:05.126Z,17.56
2019-03-30T08:28:05.917Z,17.56
2019-03-30T08:29:05.365Z,17.62
2019-03-30T08:30:05.531Z,17.88
2019-03-30T08:31:05.776Z,18.06
2019-03-30T08:32:05.780Z,18.06
2019-03-30T08:33:05.950Z,18.06
2019-03-30T08:34:06.099Z,18.00
2019-03-30T08:35:04.963Z,17.94
2019-03-30T08:36:05.277Z,17.88
2019-03-30T08:37:05.847Z,17.88
2019-03-30T08:38:05.353Z,17.81
2019-03-30T08:39:05.461Z,17.75
2019-03-30T08:40:05.535Z,17.69
2019-03-30T08:41:05.936Z,17.69
2019-03-30T08:42:05.025Z,17.62
2019-03-30T08:43:05.511Z,17.62
2019-03-30T08:44:06.091Z,17.56
2019-03-30T08:45:05.368Z,17.56
2019-03-30T08:46:05.551Z,17.56
2019-03-30T08:47:05.947Z,17.50
2019-03-30T08:48:05.467Z,17.50
2019-03-30T08:49:05.843Z,17.56
2019-03-30T08:50:05.058Z,17.69
2019-03-30T08:51:05.775Z,17.81
2019-03-30T08:52:05.298Z,17.81
2019-03-30T08:53:05.632Z,17.81
2019-03-30T08:54:05.672Z,17.69
2019-03-30T08:55:05.313Z,17.62
2019-03-30T08:56:05.864Z,17.69
2019-03-30T08:57:05.931Z,17.62
2019-03-30T08:58:05.844Z,17.56
2019-03-30T08:59:06.111Z,17.50
2019-03-30T09:00:05.228Z,17.44
2019-03-30T09:01:05.457Z,17.38
2019-03-30T09:02:06.017Z,17.31
2019-03-30T09:03:05.622Z,17.31
2019-03-30T09:04:05.223Z,17.25
2019-03-30T09:05:05.383Z,17.25
2019-03-30T09:06:05.685Z,17.25
2019-03-30T09:07:05.588Z,17.19
2019-03-30T09:08:05.783Z,17.12
2019-03-30T09:09:06.017Z,17.12
2019-03-30T09:10:05.445Z,17.06
2019-03-30T09:11:06.117Z,17.12
2019-03-30T09:12:05.068Z,17.12
2019-03-30T09:13:05.288Z,17.12
2019-03-30T09:14:05.736Z,17.19
2019-03-30T09:15:06.096Z,17.12
2019-03-30T09:16:05.205Z,17.12
2019-03-30T09:17:05.935Z,17.06
2019-03-30T09:18:05.118Z,17.06
2019-03-30T09:19:05.371Z,17.06
2019-03-30T09:20:05.778Z,17.00
2019-03-30T09:21:06.015Z,17.06
2019-03-30T09:22:05.203Z,17.12
2019-03-30T09:23:06.016Z,17.25
2019-03-30T09:24:09.772Z,17.44
2019-03-30T09:25:05.943Z,17.62
2019-03-30T09:26:06.072Z,17.69
2019-03-30T09:27:05.214Z,17.62
2019-03-30T09:28:05.447Z,17.56
2019-03-30T09:29:05.532Z,17.44
2019-03-30T09:30:05.850Z,17.38
2019-03-30T09:31:05.645Z,17.38
2019-03-30T09:32:14.006Z,17.31
2019-03-30T09:33:05.538Z,17.25
2019-03-30T09:34:05.614Z,17.25
2019-03-30T09:35:05.934Z,17.19
2019-03-30T09:36:05.852Z,17.12
2019-03-30T09:37:05.589Z,17.12
2019-03-30T09:38:06.004Z,17.06
2019-03-30T09:39:06.012Z,17.06
2019-03-30T09:40:05.645Z,17.06
2019-03-30T09:41:06.009Z,17.06
2019-03-30T09:42:05.231Z,17.00
2019-03-30T09:43:05.307Z,17.00
2019-03-30T09:44:05.764Z,17.00
2019-03-30T09:45:06.762Z,17.00
2019-03-30T09:46:05.040Z,16.94
2019-03-30T09:47:05.796Z,16.94
2019-03-30T09:48:05.961Z,16.94
2019-03-30T09:49:05.314Z,16.94
2019-03-30T09:50:05.530Z,16.88
2019-03-30T09:51:05.602Z,16.88
2019-03-30T09:52:05.125Z,16.88
2019-03-30T09:53:05.374Z,16.88
2019-03-30T09:54:05.536Z,16.88
2019-03-30T09:55:05.856Z,16.88
2019-03-30T09:56:05.213Z,16.88
2019-03-30T09:57:05.304Z,16.88
2019-03-30T09:58:05.448Z,16.88
2019-03-30T09:59:05.517Z,16.88
2019-03-30T10:00:05.827Z,16.88
2019-03-30T10:01:05.527Z,16.88
2019-03-30T10:02:05.205Z,16.88
2019-03-30T10:03:06.128Z,16.88
2019-03-30T10:04:05.075Z,16.88
2019-03-30T10:05:05.291Z,16.88
2019-03-30T10:06:05.779Z,16.88
2019-03-30T10:07:05.847Z,16.88
2019-03-30T10:08:06.103Z,16.94
2019-03-30T10:09:05.124Z,16.94
2019-03-30T10:10:05.691Z,16.94
2019-03-30T10:11:05.287Z,16.88
2019-03-30T10:12:05.833Z,16.88
2019-03-30T10:13:06.019Z,16.88
2019-03-30T10:14:05.651Z,16.88
2019-03-30T10:15:05.704Z,16.94
2019-03-30T10:16:05.444Z,16.88
2019-03-30T10:17:05.624Z,16.88
2019-03-30T10:18:05.199Z,16.88
2019-03-30T10:19:05.351Z,17.00
2019-03-30T10:20:05.596Z,17.19
2019-03-30T10:21:05.215Z,17.44
2019-03-30T10:22:05.826Z,17.56
2019-03-30T10:23:05.148Z,17.62
2019-03-30T10:24:05.303Z,17.69
2019-03-30T10:25:05.539Z,17.62
2019-03-30T10:26:05.059Z,17.62
2019-03-30T10:27:05.270Z,17.56
2019-03-30T10:28:05.537Z,17.50
2019-03-30T10:29:05.857Z,17.50
2019-03-30T10:30:06.013Z,17.44
2019-03-30T10:31:05.115Z,17.44
2019-03-30T10:32:05.434Z,17.38
2019-03-30T10:33:06.007Z,17.38
2019-03-30T10:34:05.503Z,17.38
2019-03-30T10:35:06.093Z,17.38
2019-03-30T10:36:05.194Z,17.38
2019-03-30T10:37:05.768Z,17.38
2019-03-30T10:38:05.305Z,17.31
2019-03-30T10:39:05.604Z,17.31
2019-03-30T10:40:05.781Z,17.31
2019-03-30T10:41:05.953Z,17.31
2019-03-30T10:42:05.053Z,17.31
2019-03-30T10:43:10.521Z,17.31
2019-03-30T10:44:05.841Z,17.31
2019-03-30T10:45:05.435Z,17.31
2019-03-30T10:46:05.189Z,17.31
2019-03-30T10:47:05.453Z,17.31
2019-03-30T10:48:05.765Z,17.31
2019-03-30T10:49:06.014Z,17.31
2019-03-30T10:50:05.563Z,17.31
2019-03-30T10:51:05.670Z,17.31
2019-03-30T10:52:06.010Z,17.31
2019-03-30T10:53:05.126Z,17.31
2019-03-30T10:54:05.766Z,17.31
2019-03-30T10:55:05.955Z,17.31
2019-03-30T10:56:05.359Z,17.31
2019-03-30T10:57:05.599Z,17.38
2019-03-30T10:58:06.022Z,17.38
2019-03-30T10:59:05.521Z,17.38
2019-03-30T11:00:05.989Z,17.38
2019-03-30T11:01:05.913Z,17.38
2019-03-30T11:02:05.465Z,17.38
2019-03-30T11:03:05.606Z,17.38
2019-03-30T11:04:05.362Z,17.38
2019-03-30T11:05:05.543Z,17.44
2019-03-30T11:06:05.594Z,17.44
2019-03-30T11:07:05.041Z,17.44
2019-03-30T11:08:05.518Z,17.44
2019-03-30T11:09:05.799Z,17.44
2019-03-30T11:10:06.080Z,17.44
2019-03-30T11:11:05.136Z,17.44
2019-03-30T11:12:05.695Z,17.50
2019-03-30T11:13:05.115Z,17.50
2019-03-30T11:14:05.444Z,17.50
2019-03-30T11:15:05.054Z,17.50
2019-03-30T11:16:05.704Z,17.50
2019-03-30T11:17:06.008Z,17.56
2019-03-30T11:18:05.698Z,17.56
2019-03-30T11:19:06.019Z,17.56
2019-03-30T11:20:05.131Z,17.56
2019-03-30T11:21:05.856Z,17.56
2019-03-30T11:22:05.940Z,17.62
2019-03-30T11:23:05.146Z,17.62
2019-03-30T11:24:06.768Z,17.62
2019-03-30T11:25:07.009Z,17.69
2019-03-30T11:26:05.356Z,17.62
2019-03-30T11:27:05.640Z,17.69
2019-03-30T11:28:05.535Z,17.69
2019-03-30T11:29:05.938Z,17.69
2019-03-30T11:30:05.866Z,17.69
2019-03-30T11:31:05.466Z,17.69
2019-03-30T11:32:05.846Z,17.69
2019-03-30T11:33:06.100Z,17.75
2019-03-30T11:34:05.425Z,17.75
2019-03-30T11:35:05.041Z,17.81
2019-03-30T11:36:05.596Z,17.81
2019-03-30T11:37:05.686Z,17.81
2019-03-30T11:38:05.114Z,17.81
2019-03-30T11:39:05.291Z,17.81
2019-03-30T11:40:05.923Z,17.81
2019-03-30T11:41:05.238Z,17.81
2019-03-30T11:42:05.118Z,17.81
2019-03-30T11:43:05.278Z,17.81
2019-03-30T11:44:05.856Z,17.88
2019-03-30T11:45:05.114Z,17.88
2019-03-30T11:46:05.376Z,17.88
2019-03-30T11:47:05.711Z,17.94
2019-03-30T11:48:05.381Z,17.94
2019-03-30T11:49:05.706Z,17.94
2019-03-30T11:50:05.770Z,17.94
2019-03-30T11:51:05.937Z,18.00
2019-03-30T11:52:05.260Z,18.00
2019-03-30T11:53:05.204Z,18.00
2019-03-30T11:54:05.531Z,18.00
2019-03-30T11:55:05.228Z,18.00
2019-03-30T11:56:05.376Z,18.06
2019-03-30T11:57:05.767Z,18.06
2019-03-30T11:58:05.302Z,18.06
2019-03-30T11:59:05.440Z,18.06
2019-03-30T12:00:05.767Z,18.06
2019-03-30T12:01:05.959Z,18.12
2019-03-30T12:02:05.946Z,18.12
2019-03-30T12:03:05.295Z,18.19
2019-03-30T12:04:05.271Z,18.19
2019-03-30T12:05:05.456Z,18.19
2019-03-30T12:06:05.539Z,18.19
2019-03-30T12:07:05.949Z,18.19
2019-03-30T12:08:05.926Z,18.19
2019-03-30T12:09:05.144Z,18.19
2019-03-30T12:10:05.379Z,18.19
2019-03-30T12:11:05.470Z,18.19
2019-03-30T12:12:05.464Z,18.25
2019-03-30T12:13:05.856Z,18.25
2019-03-30T12:14:06.026Z,18.25
2019-03-30T12:15:05.135Z,18.31
2019-03-30T12:16:06.010Z,18.25
2019-03-30T12:17:05.114Z,18.31
2019-03-30T12:18:05.446Z,18.31
2019-03-30T12:19:05.764Z,18.25
2019-03-30T12:20:05.534Z,18.31
2019-03-30T12:21:05.929Z,18.31
2019-03-30T12:22:05.587Z,18.31
2019-03-30T12:23:05.205Z,18.31
2019-03-30T12:24:05.512Z,18.38
2019-03-30T12:25:05.121Z,18.38
2019-03-30T12:26:05.703Z,18.38
2019-03-30T12:27:05.687Z,18.38
2019-03-30T12:28:05.447Z,18.38
2019-03-30T12:29:05.133Z,18.44
2019-03-30T12:30:07.570Z,18.44
2019-03-30T12:31:05.130Z,18.44
2019-03-30T12:32:06.011Z,18.44
2019-03-30T12:33:06.013Z,18.44
2019-03-30T12:34:05.370Z,18.44
2019-03-30T12:35:05.767Z,18.44
2019-03-30T12:36:05.829Z,18.44
2019-03-30T12:37:05.134Z,18.44
2019-03-30T12:38:05.930Z,18.50
2019-03-30T12:39:05.053Z,18.50
2019-03-30T12:40:05.770Z,18.50
2019-03-30T12:41:05.362Z,18.56
2019-03-30T12:42:05.924Z,18.56
2019-03-30T12:43:05.467Z,18.56
2019-03-30T12:44:05.842Z,18.56
2019-03-30T12:45:05.951Z,18.56
2019-03-30T12:46:05.040Z,18.56
2019-03-30T12:47:05.686Z,18.62
2019-03-30T12:48:05.831Z,18.62
2019-03-30T12:49:05.527Z,18.62
2019-03-30T12:50:06.104Z,18.62
2019-03-30T12:51:05.046Z,18.62
2019-03-30T12:52:05.274Z,18.62
2019-03-30T12:53:05.289Z,18.62
2019-03-30T12:54:05.906Z,18.62
2019-03-30T12:55:05.299Z,18.69
2019-03-30T12:56:08.802Z,18.69
2019-03-30T12:57:05.686Z,18.69
2019-03-30T12:58:05.773Z,18.69
2019-03-30T12:59:05.515Z,18.69
2019-03-30T13:00:05.613Z,18.69
2019-03-30T13:01:05.135Z,18.62
2019-03-30T13:02:05.222Z,18.62
2019-03-30T13:03:05.453Z,18.62
2019-03-30T13:04:05.598Z,18.62
2019-03-30T13:05:07.429Z,18.62